createdAt,value
2024-01-22T00:02:08.225Z,31.20
2024-01-22T00:04:36.170Z,30.63
2024-01-22T00:07:04.123Z,29.07
2024-01-22T00:09:33.610Z,28.43
2024-01-22T00:12:01.690Z,28.70
2024-01-22T00:14:29.675Z,28.00
2024-01-22T00:16:57.829Z,27.83
2024-01-22T00:19:26.036Z,26.90
2024-01-22T00:21:54.124Z,26.40
2024-01-22T00:24:22.077Z,25.80
2024-01-22T00:26:51.453Z,25.97
2024-01-22T00:29:19.376Z,27.23
2024-01-22T00:31:47.303Z,26.77
2024-01-22T00:34:15.513Z,26.20
2024-01-22T00:36:43.547Z,26.33
2024-01-22T00:39:11.488Z,26.40
2024-01-22T00:41:39.520Z,27.07
2024-01-22T00:44:08.918Z,26.17
2024-01-22T00:46:37.293Z,26.20
2024-01-22T00:49:05.478Z,26.73
2024-01-22T00:51:35.065Z,26.30
2024-01-22T00:54:03.065Z,25.10
2024-01-22T00:56:31.112Z,25.40
2024-01-22T00:58:59.032Z,26.17
2024-01-22T01:01:28.379Z,25.67
2024-01-22T01:03:57.775Z,27.40
2024-01-22T01:06:25.804Z,26.50
2024-01-22T01:08:54.072Z,27.00
2024-01-22T01:11:22.238Z,26.37
2024-01-22T01:13:50.158Z,26.50
2024-01-22T01:16:18.062Z,26.87
2024-01-22T01:18:47.449Z,27.63
2024-01-22T01:21:15.601Z,28.17
2024-01-22T01:23:43.713Z,29.53
2024-01-22T01:26:11.946Z,28.60
2024-01-22T01:28:39.857Z,30.17
2024-01-22T01:31:07.812Z,31.23
2024-01-22T01:33:36.791Z,30.77
2024-01-22T01:36:06.740Z,30.30
2024-01-22T01:38:34.742Z,32.00
2024-01-22T01:41:03.083Z,30.43
2024-01-22T01:43:30.985Z,30.77
2024-01-22T01:45:58.886Z,31.67
2024-01-22T01:48:27.840Z,30.97
2024-01-22T01:50:58.049Z,31.07
2024-01-22T01:53:29.085Z,31.03
2024-01-22T01:55:57.602Z,28.70
2024-01-22T01:58:25.807Z,29.03
2024-01-22T02:00:58.610Z,29.60
2024-01-22T02:03:26.825Z,31.27
2024-01-22T02:05:55.390Z,28.17
2024-01-22T02:08:23.344Z,28.33
2024-01-22T02:10:52.818Z,27.20
2024-01-22T02:13:20.969Z,27.17
2024-01-22T02:15:48.922Z,26.40
2024-01-22T02:18:17.020Z,25.33
2024-01-22T02:20:45.428Z,26.60
2024-01-22T02:23:14.809Z,26.30
2024-01-22T02:25:42.755Z,26.97
2024-01-22T02:28:10.656Z,27.70
2024-01-22T02:30:38.634Z,26.77
2024-01-22T02:33:07.050Z,27.00
2024-01-22T02:35:35.043Z,27.80
2024-01-22T02:38:03.081Z,29.00
2024-01-22T02:40:32.573Z,30.70
2024-01-22T02:43:00.483Z,30.80
2024-01-22T02:45:28.406Z,30.90
2024-01-22T02:47:56.494Z,32.67
2024-01-22T02:50:24.463Z,33.07
2024-01-22T02:52:52.405Z,33.03
2024-01-22T02:55:21.324Z,32.53
2024-01-22T02:57:51.028Z,32.67
2024-01-22T03:00:19.885Z,32.40
2024-01-22T03:02:48.079Z,29.70
2024-01-22T03:05:16.307Z,30.70
2024-01-22T03:07:44.366Z,30.53
2024-01-22T03:10:12.772Z,30.47
2024-01-22T03:12:42.395Z,30.23
2024-01-22T03:15:12.254Z,31.43
2024-01-22T03:17:40.206Z,30.37
2024-01-22T03:20:09.396Z,30.67
2024-01-22T03:22:37.345Z,31.00
2024-01-22T03:25:05.561Z,27.10
2024-01-22T03:27:33.456Z,29.40
2024-01-22T03:30:02.188Z,29.97
2024-01-22T03:32:31.715Z,29.70
2024-01-22T03:34:59.709Z,30.93
2024-01-22T03:37:27.631Z,31.97
2024-01-22T03:39:55.518Z,33.47
2024-01-22T03:42:23.452Z,35.57
2024-01-22T03:44:51.447Z,36.27
2024-01-22T03:47:19.350Z,33.67
2024-01-22T03:49:48.789Z,36.87
2024-01-22T03:52:16.916Z,38.57
2024-01-22T03:54:44.917Z,39.80
2024-01-22T03:57:13.233Z,41.60
2024-01-22T03:59:41.632Z,39.67
2024-01-22T04:02:09.949Z,38.97
2024-01-22T04:04:37.851Z,37.30
2024-01-22T04:07:07.384Z,35.40
2024-01-22T04:09:35.449Z,34.37
2024-01-22T04:12:05.036Z,32.20
2024-01-22T04:14:33.053Z,33.97
2024-01-22T04:17:00.926Z,32.57
2024-01-22T04:19:28.888Z,31.97
2024-01-22T04:21:56.834Z,31.90
2024-01-22T04:24:26.141Z,33.53
2024-01-22T04:26:54.356Z,31.10
2024-01-22T04:29:22.306Z,30.90
2024-01-22T04:31:50.203Z,28.97
2024-01-22T04:34:18.420Z,30.33
2024-01-22T04:36:46.423Z,32.33
2024-01-22T04:39:14.384Z,31.50
2024-01-22T04:41:43.665Z,30.67
2024-01-22T04:44:11.703Z,30.10
2024-01-22T04:46:39.639Z,32.30
2024-01-22T04:49:09.969Z,33.63
2024-01-22T04:51:38.028Z,30.27
2024-01-22T04:54:06.137Z,31.07
2024-01-22T04:56:34.066Z,32.23
2024-01-22T04:59:03.483Z,30.07
2024-01-22T05:01:32.000Z,33.13
2024-01-22T05:04:00.110Z,33.37
2024-01-22T05:06:28.246Z,33.27
2024-01-22T05:08:56.546Z,35.93
2024-01-22T05:11:25.356Z,37.37
2024-01-22T05:13:54.966Z,30.57
2024-01-22T05:16:24.513Z,30.30
2024-01-22T05:18:53.580Z,29.00
2024-01-22T05:21:23.422Z,28.57
2024-01-22T05:23:51.832Z,28.87
2024-01-22T05:26:20.643Z,28.17
2024-01-22T05:28:48.586Z,28.90
2024-01-22T05:31:16.616Z,27.20
2024-01-22T05:33:46.334Z,26.20
2024-01-22T05:36:14.861Z,24.27
2024-01-22T05:38:43.613Z,25.50
2024-01-22T05:41:11.546Z,25.20
2024-01-22T05:43:39.547Z,25.23
2024-01-22T05:46:07.456Z,24.97
2024-01-22T05:48:35.808Z,24.00
2024-01-22T05:51:05.550Z,24.17
2024-01-22T05:53:33.549Z,24.57
2024-01-22T05:56:01.569Z,23.10
2024-01-22T05:58:29.492Z,23.57
2024-01-22T06:00:57.503Z,24.67
2024-01-22T06:03:25.620Z,25.87
2024-01-22T06:05:53.720Z,25.50
2024-01-22T06:08:23.024Z,25.77
2024-01-22T06:10:52.167Z,25.27
2024-01-22T06:13:20.165Z,24.50
2024-01-22T06:15:48.116Z,23.87
2024-01-22T06:18:16.160Z,25.60
2024-01-22T06:20:44.159Z,24.83
2024-01-22T06:23:12.272Z,23.80
2024-01-22T06:25:41.535Z,24.23
2024-01-22T06:28:09.687Z,24.30
2024-01-22T06:30:37.763Z,24.50
2024-01-22T06:33:06.813Z,24.13
2024-01-22T06:35:34.766Z,25.00
2024-01-22T06:38:02.776Z,24.47
2024-01-22T06:40:31.426Z,24.90
2024-01-22T06:43:00.675Z,25.87
2024-01-22T06:45:28.628Z,25.97
2024-01-22T06:47:56.645Z,27.17
2024-01-22T06:50:25.177Z,27.37
2024-01-22T06:52:53.060Z,26.23
2024-01-22T06:55:20.996Z,27.27
2024-01-22T06:57:49.113Z,25.80
2024-01-22T07:00:20.586Z,26.70
2024-01-22T07:02:50.659Z,26.23
2024-01-22T07:05:19.565Z,25.73
2024-01-22T07:07:47.697Z,25.00
2024-01-22T07:10:15.903Z,24.33
2024-01-22T07:12:43.976Z,24.83
2024-01-22T07:15:14.377Z,24.73
2024-01-22T07:17:46.028Z,23.13
2024-01-22T07:20:15.814Z,24.47
2024-01-22T07:22:48.036Z,26.07
2024-01-22T07:25:22.307Z,25.33
2024-01-22T07:27:50.335Z,25.40
2024-01-22T07:30:18.445Z,25.10
2024-01-22T07:32:49.031Z,23.43
2024-01-22T07:35:18.284Z,24.83
2024-01-22T07:37:47.739Z,24.33
2024-01-22T07:40:16.338Z,23.87
2024-01-22T07:42:44.318Z,23.50
2024-01-22T07:45:13.281Z,24.70
2024-01-22T07:47:41.481Z,25.80
2024-01-22T07:50:14.278Z,32.57
2024-01-22T07:52:44.021Z,30.50
2024-01-22T07:55:18.094Z,31.43
2024-01-22T07:57:46.157Z,33.00
2024-01-22T08:00:15.598Z,30.13
2024-01-22T08:02:43.562Z,34.80
2024-01-22T08:05:14.712Z,35.70
2024-01-22T08:07:43.737Z,37.80
2024-01-22T08:10:11.911Z,39.23
2024-01-22T08:12:39.949Z,42.37
2024-01-22T08:15:08.664Z,39.00
2024-01-22T08:17:37.141Z,36.23
2024-01-22T08:20:07.590Z,39.60
2024-01-22T08:22:36.915Z,39.40
2024-01-22T08:25:05.243Z,39.80
2024-01-22T08:27:33.198Z,42.30
2024-01-22T08:30:01.130Z,41.60
2024-01-22T08:32:29.121Z,41.27
2024-01-22T08:34:57.284Z,45.40
2024-01-22T08:37:25.288Z,44.97
2024-01-22T08:39:54.971Z,47.20
2024-01-22T08:42:22.951Z,49.30
2024-01-22T08:44:50.936Z,50.67
2024-01-22T08:47:19.230Z,52.13
2024-01-22T08:49:47.378Z,55.30
2024-01-22T08:52:15.378Z,58.03
2024-01-22T08:54:43.290Z,58.83
2024-01-22T08:57:12.603Z,62.30
2024-01-22T08:59:40.722Z,61.77
2024-01-22T09:02:08.716Z,62.30
2024-01-22T09:04:36.695Z,62.80
2024-01-22T09:07:04.925Z,64.73
2024-01-22T09:09:32.892Z,58.40
2024-01-22T09:12:00.952Z,58.20
2024-01-22T09:14:30.396Z,55.67
2024-01-22T09:16:58.338Z,50.37
2024-01-22T09:19:27.086Z,47.87
2024-01-22T09:21:55.199Z,41.77
2024-01-22T09:24:23.278Z,36.90
2024-01-22T09:26:51.421Z,37.67
2024-01-22T09:29:19.453Z,39.00
2024-01-22T09:31:49.308Z,38.77
2024-01-22T09:34:17.530Z,40.53
2024-01-22T09:36:45.549Z,41.43
2024-01-22T09:39:13.774Z,41.67
2024-01-22T09:41:42.804Z,43.67
2024-01-22T09:44:11.070Z,41.40
2024-01-22T09:46:39.368Z,39.77
2024-01-22T09:49:08.837Z,38.40
2024-01-22T09:51:37.169Z,38.70
2024-01-22T09:54:08.951Z,39.03
2024-01-22T09:56:39.276Z,40.13
2024-01-22T09:59:17.970Z,44.87
2024-01-22T10:01:47.736Z,45.33
2024-01-22T10:04:18.052Z,47.30
2024-01-22T10:06:47.195Z,49.77
2024-01-22T10:09:16.732Z,52.23
2024-01-22T10:11:44.853Z,51.50
2024-01-22T10:14:13.389Z,48.23
2024-01-22T10:16:41.435Z,43.87
2024-01-22T10:19:10.857Z,44.27
2024-01-22T10:21:40.982Z,45.63
2024-01-22T10:24:10.366Z,43.70
2024-01-22T10:26:40.192Z,40.27
2024-01-22T10:29:17.097Z,42.57
2024-01-22T10:31:56.237Z,47.43
2024-01-22T10:34:25.341Z,53.60
2024-01-22T10:37:08.452Z,57.53
2024-01-22T10:39:36.911Z,56.43
2024-01-22T10:42:12.299Z,54.97
2024-01-22T10:44:42.505Z,58.77
2024-01-22T10:47:10.862Z,51.17
2024-01-22T10:49:39.063Z,56.60
2024-01-22T10:52:08.716Z,48.07
2024-01-22T10:54:37.899Z,49.57
2024-01-22T10:57:07.545Z,47.40
2024-01-22T10:59:39.978Z,48.10
2024-01-22T11:02:09.254Z,52.57
2024-01-22T11:04:43.445Z,47.47
2024-01-22T11:07:13.533Z,46.83
2024-01-22T11:09:42.759Z,44.33
2024-01-22T11:12:11.817Z,42.57
2024-01-22T11:14:40.574Z,38.00
2024-01-22T11:17:10.256Z,37.47
2024-01-22T11:19:38.882Z,36.63
2024-01-22T11:22:10.213Z,34.40
2024-01-22T11:24:39.486Z,30.13
2024-01-22T11:27:08.727Z,28.40
2024-01-22T11:29:37.041Z,28.50
2024-01-22T11:32:35.361Z,27.50
2024-01-22T11:35:10.862Z,26.00
2024-01-22T11:37:46.631Z,26.00
2024-01-22T11:40:17.431Z,25.90
2024-01-22T11:42:46.790Z,24.37
2024-01-22T11:45:16.325Z,24.70
2024-01-22T11:47:46.276Z,25.17
2024-01-22T11:50:16.370Z,23.67
2024-01-22T11:52:45.329Z,23.80
2024-01-22T11:55:14.730Z,22.93
2024-01-22T11:57:44.185Z,23.07
2024-01-22T12:00:20.734Z,23.47
2024-01-22T12:02:51.542Z,23.17
2024-01-22T12:05:21.034Z,23.60
2024-01-22T12:07:51.278Z,22.60
2024-01-22T12:10:22.613Z,21.97
2024-01-22T12:12:51.828Z,22.20
2024-01-22T12:15:20.140Z,21.73
2024-01-22T12:17:48.464Z,23.07
2024-01-22T12:20:17.664Z,23.70
2024-01-22T12:22:45.667Z,22.70
2024-01-22T12:25:14.311Z,22.90
2024-01-22T12:27:44.132Z,23.17
2024-01-22T12:30:14.150Z,22.67
2024-01-22T12:32:54.460Z,22.67
2024-01-22T12:35:24.956Z,22.50
2024-01-22T12:37:57.905Z,22.33
2024-01-22T12:40:26.629Z,22.33
2024-01-22T12:43:03.849Z,21.10
2024-01-22T12:45:31.873Z,21.20
2024-01-22T12:48:00.339Z,20.40
2024-01-22T12:50:30.600Z,20.33
2024-01-22T12:52:58.521Z,20.50
2024-01-22T12:55:27.040Z,20.70
2024-01-22T12:57:56.739Z,21.17
2024-01-22T13:00:25.775Z,21.20
2024-01-22T13:02:53.786Z,20.57
2024-01-22T13:05:22.099Z,21.50
2024-01-22T13:07:50.343Z,21.77
2024-01-22T13:10:18.546Z,21.67
2024-01-22T13:12:46.546Z,21.93
2024-01-22T13:15:16.251Z,21.97
2024-01-22T13:17:44.868Z,21.60
2024-01-22T13:20:14.404Z,21.93
2024-01-22T13:22:42.433Z,21.73
2024-01-22T13:25:10.822Z,22.47
2024-01-22T13:27:39.065Z,22.37
2024-01-22T13:30:08.432Z,21.80
2024-01-22T13:32:37.916Z,22.27
2024-01-22T13:35:07.037Z,22.57
2024-01-22T13:37:35.270Z,21.77
2024-01-22T13:40:03.233Z,21.97
2024-01-22T13:42:31.230Z,22.23
2024-01-22T13:44:59.725Z,22.47
2024-01-22T13:47:37.023Z,22.77
2024-01-22T13:50:08.973Z,22.77
2024-01-22T13:52:37.333Z,22.17
2024-01-22T13:55:06.704Z,22.73
2024-01-22T13:57:34.784Z,22.30
2024-01-22T14:00:02.798Z,22.70
2024-01-22T14:02:31.279Z,21.70
2024-01-22T14:04:59.221Z,22.07
2024-01-22T14:07:28.632Z,22.87
2024-01-22T14:09:56.702Z,23.87
2024-01-22T14:12:25.470Z,23.57
2024-01-22T14:14:54.244Z,23.57
2024-01-22T14:17:22.381Z,23.27
2024-01-22T14:19:50.790Z,23.40
2024-01-22T14:22:21.325Z,23.17
2024-01-22T14:24:50.821Z,23.60
2024-01-22T14:27:20.178Z,23.40
2024-01-22T14:29:48.948Z,23.23
2024-01-22T14:32:17.064Z,23.60
2024-01-22T14:34:45.104Z,23.90
2024-01-22T14:37:14.807Z,23.57
2024-01-22T14:39:44.776Z,22.70
2024-01-22T14:42:14.821Z,23.10
2024-01-22T14:44:42.993Z,24.00
2024-01-22T14:47:11.125Z,23.87
2024-01-22T14:49:40.071Z,22.90
2024-01-22T14:52:08.023Z,22.23
2024-01-22T14:54:35.987Z,21.87
2024-01-22T14:57:03.987Z,22.37
2024-01-22T14:59:36.815Z,22.63
2024-01-22T15:02:05.184Z,23.03
2024-01-22T15:04:33.092Z,22.60
2024-01-22T15:07:01.147Z,22.83
2024-01-22T15:09:29.145Z,22.70
2024-01-22T15:11:57.153Z,22.97
2024-01-22T15:14:27.956Z,22.90
2024-01-22T15:16:58.643Z,23.60
2024-01-22T15:19:26.732Z,23.30
2024-01-22T15:21:54.761Z,23.20
2024-01-22T15:24:22.767Z,23.47
2024-01-22T15:26:50.820Z,23.80
2024-01-22T15:29:18.922Z,22.93
2024-01-22T15:31:50.882Z,23.60
2024-01-22T15:34:20.941Z,24.83
2024-01-22T15:36:49.176Z,25.00
2024-01-22T15:39:21.407Z,25.03
2024-01-22T15:41:49.519Z,24.77
2024-01-22T15:44:17.534Z,25.47
2024-01-22T15:46:45.850Z,25.57
2024-01-22T15:49:14.314Z,26.03
2024-01-22T15:51:43.765Z,26.00
2024-01-22T15:54:11.799Z,26.67
2024-01-22T15:56:39.936Z,26.93
2024-01-22T15:59:09.185Z,27.67
2024-01-22T16:01:37.386Z,27.47
2024-01-22T16:04:05.812Z,26.73
2024-01-22T16:06:34.060Z,26.27
2024-01-22T16:09:06.120Z,27.03
2024-01-22T16:11:36.884Z,27.63
2024-01-22T16:14:05.128Z,27.70
2024-01-22T16:16:33.511Z,28.17
2024-01-22T16:19:02.960Z,27.67
2024-01-22T16:21:35.507Z,28.20
2024-01-22T16:24:05.282Z,29.67
2024-01-22T16:26:33.943Z,27.60
2024-01-22T16:29:02.017Z,26.73
2024-01-22T16:31:29.960Z,28.17
2024-01-22T16:33:58.237Z,28.67
2024-01-22T16:36:26.494Z,27.70
2024-01-22T16:38:54.576Z,29.00
2024-01-22T16:41:23.855Z,28.87
2024-01-22T16:43:51.780Z,29.27
2024-01-22T16:46:19.667Z,29.20
2024-01-22T16:48:47.741Z,27.53
2024-01-22T16:51:15.749Z,27.53
2024-01-22T16:53:43.713Z,27.63
2024-01-22T16:56:13.025Z,27.10
2024-01-22T16:58:42.306Z,26.83
2024-01-22T17:01:10.274Z,27.67
2024-01-22T17:03:38.481Z,28.63
2024-01-22T17:06:06.985Z,29.37
2024-01-22T17:08:34.939Z,29.87
2024-01-22T17:11:02.882Z,30.37
2024-01-22T17:13:33.383Z,31.03
2024-01-22T17:16:05.654Z,31.07
2024-01-22T17:18:35.037Z,30.17
2024-01-22T17:21:03.311Z,30.10
2024-01-22T17:23:33.083Z,30.00
2024-01-22T17:26:02.614Z,27.80
2024-01-22T17:28:30.871Z,28.30
2024-01-22T17:30:59.802Z,28.00
2024-01-22T17:33:29.301Z,28.67
2024-01-22T17:35:57.383Z,27.20
2024-01-22T17:38:26.278Z,26.47
2024-01-22T17:40:54.386Z,27.33
2024-01-22T17:43:22.380Z,27.63
2024-01-22T17:45:50.516Z,27.10
2024-01-22T17:48:18.969Z,26.87
2024-01-22T17:50:49.240Z,27.27
2024-01-22T17:53:17.403Z,27.27
2024-01-22T17:55:45.729Z,28.47
2024-01-22T17:58:13.839Z,28.67
2024-01-22T18:00:45.029Z,29.40
2024-01-22T18:03:13.085Z,29.50
2024-01-22T18:05:41.400Z,30.20
2024-01-22T18:08:11.885Z,29.80
2024-01-22T18:10:39.968Z,31.40
2024-01-22T18:13:07.936Z,31.73
2024-01-22T18:15:35.870Z,31.67
2024-01-22T18:18:04.365Z,31.93
2024-01-22T18:20:32.622Z,32.53
2024-01-22T18:23:00.712Z,32.40
2024-01-22T18:25:30.079Z,31.70
2024-01-22T18:27:58.314Z,32.57
2024-01-22T18:30:26.563Z,33.17
2024-01-22T18:32:54.581Z,33.73
2024-01-22T18:35:22.510Z,34.70
2024-01-22T18:37:50.395Z,33.90
2024-01-22T18:40:18.499Z,32.53
2024-01-22T18:42:47.928Z,33.17
2024-01-22T18:45:15.947Z,33.60
2024-01-22T18:47:44.078Z,34.60
2024-01-22T18:50:12.294Z,36.27
2024-01-22T18:52:40.227Z,35.30
2024-01-22T18:55:08.537Z,33.47
2024-01-22T18:57:36.657Z,35.20
2024-01-22T19:00:07.582Z,34.17
2024-01-22T19:02:35.617Z,34.87
2024-01-22T19:05:03.613Z,35.07
2024-01-22T19:07:33.118Z,35.83
2024-01-22T19:10:01.267Z,36.83
2024-01-22T19:12:29.245Z,34.00
2024-01-22T19:14:57.373Z,36.00
2024-01-22T19:17:26.856Z,36.30
2024-01-22T19:19:54.913Z,35.97
2024-01-22T19:22:22.846Z,35.43
2024-01-22T19:24:50.819Z,35.67
2024-01-22T19:27:19.036Z,35.80
2024-01-22T19:29:47.276Z,36.07
2024-01-22T19:32:15.229Z,36.63
2024-01-22T19:34:44.582Z,36.60
2024-01-22T19:37:12.498Z,36.63
2024-01-22T19:39:40.496Z,37.27
2024-01-22T19:42:08.874Z,38.67
2024-01-22T19:44:37.916Z,37.70
2024-01-22T19:47:06.452Z,38.13
2024-01-22T19:49:34.535Z,38.87
2024-01-22T19:52:04.122Z,38.73
2024-01-22T19:54:32.108Z,40.63
2024-01-22T19:57:00.253Z,37.07
2024-01-22T19:59:28.279Z,38.17
2024-01-22T20:01:56.191Z,37.80
2024-01-22T20:04:24.328Z,38.00
2024-01-22T20:06:52.347Z,36.77
2024-01-22T20:09:21.682Z,37.67
2024-01-22T20:11:49.619Z,37.23
2024-01-22T20:14:17.750Z,36.43
2024-01-22T20:16:45.883Z,37.73
2024-01-22T20:19:14.385Z,37.67
2024-01-22T20:21:43.012Z,40.27
2024-01-22T20:24:13.288Z,40.00
2024-01-22T20:26:43.466Z,39.50
2024-01-22T20:29:12.208Z,41.10
2024-01-22T20:31:40.369Z,40.30
2024-01-22T20:34:08.531Z,40.10
2024-01-22T20:36:39.841Z,38.73
2024-01-22T20:39:07.880Z,39.47
2024-01-22T20:41:35.826Z,38.97
2024-01-22T20:44:05.083Z,41.53
2024-01-22T20:46:33.240Z,40.80
2024-01-22T20:49:01.560Z,42.30
2024-01-22T20:51:30.058Z,45.90
2024-01-22T20:53:58.490Z,48.83
2024-01-22T20:56:26.637Z,47.63
2024-01-22T20:58:54.638Z,49.87
2024-01-22T21:01:24.874Z,53.13
2024-01-22T21:03:53.491Z,55.50
2024-01-22T21:06:21.650Z,55.87
2024-01-22T21:08:49.654Z,58.47
2024-01-22T21:11:17.782Z,59.17
2024-01-22T21:13:45.930Z,57.83
2024-01-22T21:16:13.921Z,55.90
2024-01-22T21:18:44.209Z,54.87
2024-01-22T21:21:12.574Z,54.03
2024-01-22T21:23:41.843Z,54.20
2024-01-22T21:26:14.805Z,54.07
2024-01-22T21:28:44.457Z,54.37
2024-01-22T21:31:13.130Z,54.23
2024-01-22T21:33:41.347Z,51.33
2024-01-22T21:36:11.972Z,50.73
2024-01-22T21:38:39.971Z,49.37
2024-01-22T21:41:07.923Z,52.40
2024-01-22T21:43:35.858Z,51.17
2024-01-22T21:46:03.796Z,50.13
2024-01-22T21:48:31.895Z,49.57
2024-01-22T21:50:59.957Z,50.57
2024-01-22T21:53:29.226Z,49.20
2024-01-22T21:55:57.435Z,49.70
2024-01-22T21:58:25.381Z,50.20
2024-01-22T22:00:53.367Z,50.87
2024-01-22T22:03:24.313Z,50.17
2024-01-22T22:05:52.603Z,50.73
2024-01-22T22:08:20.551Z,50.20
2024-01-22T22:10:52.149Z,52.10
2024-01-22T22:13:20.137Z,52.10
2024-01-22T22:15:48.417Z,49.47
2024-01-22T22:18:16.693Z,50.10
2024-01-22T22:20:45.225Z,48.90
2024-01-22T22:23:17.138Z,50.77
2024-01-22T22:25:45.060Z,51.03
2024-01-22T22:28:14.332Z,49.30
2024-01-22T22:30:42.299Z,50.50
2024-01-22T22:33:10.878Z,49.87
2024-01-22T22:35:39.789Z,49.07
2024-01-22T22:38:07.849Z,49.90
2024-01-22T22:40:35.980Z,52.03
2024-01-22T22:43:04.330Z,51.47
2024-01-22T22:45:34.099Z,52.73
2024-01-22T22:48:02.416Z,50.47
2024-01-22T22:50:30.447Z,50.20
2024-01-22T22:52:58.696Z,49.80
2024-01-22T22:55:26.777Z,48.93
2024-01-22T22:57:55.794Z,49.20
2024-01-22T23:00:24.247Z,45.67
2024-01-22T23:02:55.440Z,44.27
2024-01-22T23:05:24.757Z,45.00
2024-01-22T23:07:52.670Z,42.73
2024-01-22T23:10:20.592Z,43.63
2024-01-22T23:12:49.046Z,43.30
2024-01-22T23:15:18.388Z,43.43
2024-01-22T23:17:46.596Z,42.27
2024-01-22T23:20:16.297Z,44.07
2024-01-22T23:22:44.473Z,42.77
2024-01-22T23:25:13.292Z,39.30
2024-01-22T23:27:41.170Z,39.10
2024-01-22T23:30:10.522Z,38.70
2024-01-22T23:32:40.092Z,35.73
2024-01-22T23:35:09.445Z,34.10
2024-01-22T23:37:38.922Z,32.77
2024-01-22T23:40:07.920Z,31.40
2024-01-22T23:42:35.842Z,30.70
2024-01-22T23:45:05.972Z,31.00
2024-01-22T23:47:34.066Z,30.80
2024-01-22T23:50:02.305Z,30.87
2024-01-22T23:52:30.537Z,31.27
2024-01-22T23:54:59.930Z,31.03
2024-01-22T23:57:27.886Z,32.30
2024-01-22T23:59:56.245Z,34.60
